sensor_id;sensor_type;location;lat;lon;timestamp;pressure;altitude;pressure_sealevel;temperature;humidity
11676;BME280;5894;42.768;23.404;2023-08-17T00:00:01;95718.94;;;24.28;97.65
11676;BME280;5894;42.768;23.404;2023-08-17T00:02:31;95728.94;;;24.27;97.80
11676;BME280;5894;42.768;23.404;2023-08-17T00:05:00;95729.72;;;24.28;97.50
11676;BME280;5894;42.768;23.404;2023-08-17T00:07:27;95729.31;;;24.26;98.83
11676;BME280;5894;42.768;23.404;2023-08-17T00:09:54;95720.84;;;24.24;100.00
11676;BME280;5894;42.768;23.404;2023-08-17T00:12:21;95716.97;;;24.21;100.00
11676;BME280;5894;42.768;23.404;2023-08-17T00:14:48;95726.22;;;24.17;99.41
11676;BME280;5894;42.768;23.404;2023-08-17T00:17:15;95721.22;;;24.19;99.66
11676;BME280;5894;42.768;23.404;2023-08-17T00:19:42;95733.91;;;24.14;100.00
11676;BME280;5894;42.768;23.404;2023-08-17T00:22:11;95729.31;;;24.08;100.00
11676;BME280;5894;42.768;23.404;2023-08-17T00:24:38;95726.19;;;24.02;100.00
11676;BME280;5894;42.768;23.404;2023-08-17T00:27:07;95726.59;;;23.94;100.00
11676;BME280;5894;42.768;23.404;2023-08-17T00:29:34;95730.81;;;23.88;100.00
11676;BME280;5894;42.768;23.404;2023-08-17T00:32:02;95727.69;;;23.78;100.00
11676;BME280;5894;42.768;23.404;2023-08-17T00:34:29;95716.94;;;23.75;100.00
11676;BME280;5894;42.768;23.404;2023-08-17T00:36:57;95717.69;;;23.72;100.00
11676;BME280;5894;42.768;23.404;2023-08-17T00:39:26;95715.00;;;23.65;100.00
11676;BME280;5894;42.768;23.404;2023-08-17T00:41:53;95718.78;;;23.57;100.00
11676;BME280;5894;42.768;23.404;2023-08-17T00:44:20;95712.25;;;23.51;100.00
11676;BME280;5894;42.768;23.404;2023-08-17T00:46:47;95721.81;;;23.48;100.00
11676;BME280;5894;42.768;23.404;2023-08-17T00:49:14;95729.50;;;23.42;100.00
11676;BME280;5894;42.768;23.404;2023-08-17T00:51:41;95721.81;;;23.41;100.00
11676;BME280;5894;42.768;23.404;2023-08-17T00:54:09;95650.88;;;22.87;100.00
11676;BME280;5894;42.768;23.404;2023-08-17T00:56:38;95658.59;;;22.92;100.00
11676;BME280;5894;42.768;23.404;2023-08-17T00:59:05;95724.88;;;23.32;100.00
11676;BME280;5894;42.768;23.404;2023-08-17T01:01:33;95720.97;;;23.26;100.00
11676;BME280;5894;42.768;23.404;2023-08-17T01:04:00;95718.28;;;23.23;100.00
11676;BME280;5894;42.768;23.404;2023-08-17T01:06:27;95717.09;;;23.17;100.00
11676;BME280;5894;42.768;23.404;2023-08-17T01:08:55;95719.41;;;23.11;100.00
11676;BME280;5894;42.768;23.404;2023-08-17T01:11:29;95707.06;;;23.03;100.00
11676;BME280;5894;42.768;23.404;2023-08-17T01:14:04;95725.13;;;23.06;100.00
11676;BME280;5894;42.768;23.404;2023-08-17T01:16:37;95735.84;;;22.99;100.00
11676;BME280;5894;42.768;23.404;2023-08-17T01:19:08;95717.00;;;22.95;100.00
11676;BME280;5894;42.768;23.404;2023-08-17T01:21:41;95720.06;;;22.90;100.00
11676;BME280;5894;42.768;23.404;2023-08-17T01:24:11;95726.19;;;22.87;100.00
11676;BME280;5894;42.768;23.404;2023-08-17T01:26:38;95721.53;;;22.84;100.00
11676;BME280;5894;42.768;23.404;2023-08-17T01:29:05;95720.78;;;22.80;100.00
11676;BME280;5894;42.768;23.404;2023-08-17T01:31:39;95716.50;;;22.76;100.00
11676;BME280;5894;42.768;23.404;2023-08-17T01:34:11;95724.16;;;22.70;100.00
11676;BME280;5894;42.768;23.404;2023-08-17T01:36:48;95720.25;;;22.64;100.00
11676;BME280;5894;42.768;23.404;2023-08-17T01:39:19;95719.88;;;22.65;100.00
11676;BME280;5894;42.768;23.404;2023-08-17T01:41:48;95712.59;;;22.62;100.00
11676;BME280;5894;42.768;23.404;2023-08-17T01:44:15;95707.13;;;22.55;100.00
11676;BME280;5894;42.768;23.404;2023-08-17T01:46:43;95719.44;;;22.53;100.00
11676;BME280;5894;42.768;23.404;2023-08-17T01:49:10;95719.41;;;22.49;100.00
11676;BME280;5894;42.768;23.404;2023-08-17T01:51:37;95714.00;;;22.46;100.00
11676;BME280;5894;42.768;23.404;2023-08-17T01:54:05;95719.38;;;22.42;100.00
11676;BME280;5894;42.768;23.404;2023-08-17T01:56:34;95710.50;;;22.38;100.00
11676;BME280;5894;42.768;23.404;2023-08-17T01:59:01;95715.09;;;22.38;100.00
11676;BME280;5894;42.768;23.404;2023-08-17T02:01:28;95715.81;;;22.31;100.00
11676;BME280;5894;42.768;23.404;2023-08-17T02:03:55;95717.75;;;22.30;100.00
11676;BME280;5894;42.768;23.404;2023-08-17T02:06:22;95715.41;;;22.32;100.00
11676;BME280;5894;42.768;23.404;2023-08-17T02:08:49;95708.13;;;22.33;100.00
11676;BME280;5894;42.768;23.404;2023-08-17T02:11:17;95705.03;;;22.27;100.00
11676;BME280;5894;42.768;23.404;2023-08-17T02:13:45;95710.00;;;22.25;100.00
11676;BME280;5894;42.768;23.404;2023-08-17T02:16:12;95707.31;;;22.25;100.00
11676;BME280;5894;42.768;23.404;2023-08-17T02:18:39;95712.66;;;22.22;100.00
11676;BME280;5894;42.768;23.404;2023-08-17T02:21:06;95716.09;;;22.19;100.00
11676;BME280;5894;42.768;23.404;2023-08-17T02:23:34;95705.00;;;22.20;100.00
11676;BME280;5894;42.768;23.404;2023-08-17T02:26:01;95709.19;;;22.18;100.00
11676;BME280;5894;42.768;23.404;2023-08-17T02:28:30;95701.47;;;22.13;100.00
11676;BME280;5894;42.768;23.404;2023-08-17T02:30:59;95703.75;;;22.11;100.00
11676;BME280;5894;42.768;23.404;2023-08-17T02:33:29;95705.16;;;21.97;100.00
11676;BME280;5894;42.768;23.404;2023-08-17T02:35:56;95699.34;;;21.92;100.00
11676;BME280;5894;42.768;23.404;2023-08-17T02:38:23;95697.78;;;21.87;100.00
11676;BME280;5894;42.768;23.404;2023-08-17T02:40:50;95694.31;;;21.87;100.00
11676;BME280;5894;42.768;23.404;2023-08-17T02:43:17;95685.03;;;21.77;100.00
11676;BME280;5894;42.768;23.404;2023-08-17T02:45:44;95690.75;;;21.76;100.00
11676;BME280;5894;42.768;23.404;2023-08-17T02:48:12;95691.50;;;21.73;100.00
11676;BME280;5894;42.768;23.404;2023-08-17T02:50:40;95688.34;;;21.64;100.00
11676;BME280;5894;42.768;23.404;2023-08-17T02:53:07;95688.72;;;21.62;100.00
11676;BME280;5894;42.768;23.404;2023-08-17T02:55:34;95689.84;;;21.61;100.00
11676;BME280;5894;42.768;23.404;2023-08-17T02:58:01;95690.97;;;21.56;100.00
11676;BME280;5894;42.768;23.404;2023-08-17T03:00:28;95694.38;;;21.53;100.00
11676;BME280;5894;42.768;23.404;2023-08-17T03:02:56;95683.59;;;21.46;100.00
11676;BME280;5894;42.768;23.404;2023-08-17T03:05:26;95693.50;;;21.42;100.00
11676;BME280;5894;42.768;23.404;2023-08-17T03:07:54;95692.00;;;21.45;100.00
11676;BME280;5894;42.768;23.404;2023-08-17T03:10:21;95697.34;;;21.45;100.00
11676;BME280;5894;42.768;23.404;2023-08-17T03:12:50;95690.75;;;21.39;100.00
11676;BME280;5894;42.768;23.404;2023-08-17T03:15:17;95669.03;;;21.14;100.00
11676;BME280;5894;42.768;23.404;2023-08-17T03:17:44;95694.09;;;21.29;100.00
11676;BME280;5894;42.768;23.404;2023-08-17T03:20:11;95697.19;;;21.27;100.00
11676;BME280;5894;42.768;23.404;2023-08-17T03:22:40;95696.84;;;21.32;100.00
11676;BME280;5894;42.768;23.404;2023-08-17T03:25:08;95700.25;;;21.29;100.00
11676;BME280;5894;42.768;23.404;2023-08-17T03:27:36;95698.66;;;21.24;100.00
11676;BME280;5894;42.768;23.404;2023-08-17T03:30:04;95701.34;;;21.24;100.00
11676;BME280;5894;42.768;23.404;2023-08-17T03:32:32;95672.66;;;20.99;100.00
11676;BME280;5894;42.768;23.404;2023-08-17T03:34:59;95704.66;;;21.14;100.00
11676;BME280;5894;42.768;23.404;2023-08-17T03:37:26;95701.91;;;21.11;100.00
11676;BME280;5894;42.768;23.404;2023-08-17T03:39:55;95706.16;;;21.12;100.00
11676;BME280;5894;42.768;23.404;2023-08-17T03:42:22;95703.81;;;21.10;100.00
11676;BME280;5894;42.768;23.404;2023-08-17T03:44:49;95707.63;;;21.09;100.00
11676;BME280;5894;42.768;23.404;2023-08-17T03:47:17;95704.56;;;21.07;100.00
11676;BME280;5894;42.768;23.404;2023-08-17T03:49:44;95714.13;;;21.08;100.00
11676;BME280;5894;42.768;23.404;2023-08-17T03:52:12;95712.63;;;21.07;100.00
11676;BME280;5894;42.768;23.404;2023-08-17T03:54:40;95711.47;;;21.08;100.00
11676;BME280;5894;42.768;23.404;2023-08-17T03:57:08;95699.03;;;20.93;100.00
11676;BME280;5894;42.768;23.404;2023-08-17T03:59:35;95690.91;;;20.86;100.00
11676;BME280;5894;42.768;23.404;2023-08-17T04:02:02;95713.22;;;20.97;100.00
11676;BME280;5894;42.768;23.404;2023-08-17T04:04:29;95707.47;;;20.95;100.00
11676;BME280;5894;42.768;23.404;2023-08-17T04:06:57;95712.84;;;20.95;100.00
11676;BME280;5894;42.768;23.404;2023-08-17T04:09:24;95712.00;;;20.91;100.00
11676;BME280;5894;42.768;23.404;2023-08-17T04:11:52;95721.19;;;20.90;100.00
11676;BME280;5894;42.768;23.404;2023-08-17T04:14:21;95721.19;;;20.90;100.00
11676;BME280;5894;42.768;23.404;2023-08-17T04:16:49;95718.88;;;20.88;100.00
11676;BME280;5894;42.768;23.404;2023-08-17T04:19:16;95720.41;;;20.89;100.00
11676;BME280;5894;42.768;23.404;2023-08-17T04:21:43;95722.31;;;20.89;100.00
11676;BME280;5894;42.768;23.404;2023-08-17T04:24:10;95725.41;;;20.91;100.00
11676;BME280;5894;42.768;23.404;2023-08-17T04:26:37;95725.41;;;20.91;100.00
11676;BME280;5894;42.768;23.404;2023-08-17T04:29:04;95711.25;;;20.91;100.00
11676;BME280;5894;42.768;23.404;2023-08-17T04:31:33;95712.78;;;20.92;100.00
11676;BME280;5894;42.768;23.404;2023-08-17T04:34:02;95722.03;;;20.94;100.00
11676;BME280;5894;42.768;23.404;2023-08-17T04:36:29;95720.47;;;20.93;100.00
11676;BME280;5894;42.768;23.404;2023-08-17T04:38:56;95720.16;;;20.98;100.00
11676;BME280;5894;42.768;23.404;2023-08-17T04:41:24;95721.66;;;20.96;100.00
11676;BME280;5894;42.768;23.404;2023-08-17T04:43:52;95718.97;;;20.96;100.00
11676;BME280;5894;42.768;23.404;2023-08-17T04:46:19;95719.38;;;20.98;100.00
11676;BME280;5894;42.768;23.404;2023-08-17T04:48:48;95718.28;;;21.02;100.00
11676;BME280;5894;42.768;23.404;2023-08-17T04:51:16;95725.97;;;21.04;100.00
11676;BME280;5894;42.768;23.404;2023-08-17T04:53:43;95727.47;;;21.01;100.00
11676;BME280;5894;42.768;23.404;2023-08-17T04:56:10;95723.72;;;21.06;100.00
11676;BME280;5894;42.768;23.404;2023-08-17T04:58:38;95710.97;;;20.99;100.00
11676;BME280;5894;42.768;23.404;2023-08-17T05:01:05;95723.38;;;21.11;100.00
11676;BME280;5894;42.768;23.404;2023-08-17T05:03:32;95721.47;;;21.11;100.00
11676;BME280;5894;42.768;23.404;2023-08-17T05:06:03;95725.75;;;21.16;100.00
11676;BME280;5894;42.768;23.404;2023-08-17T05:08:32;95721.16;;;21.16;100.00
11676;BME280;5894;42.768;23.404;2023-08-17T05:11:00;95714.28;;;21.19;100.00
11676;BME280;5894;42.768;23.404;2023-08-17T05:13:28;95719.34;;;21.24;100.00
11676;BME280;5894;42.768;23.404;2023-08-17T05:15:58;95720.56;;;21.30;100.00
11676;BME280;5894;42.768;23.404;2023-08-17T05:18:26;95723.28;;;21.34;100.00
11676;BME280;5894;42.768;23.404;2023-08-17T05:20:53;95723.72;;;21.39;100.00
11676;BME280;5894;42.768;23.404;2023-08-17T05:23:22;95724.19;;;21.45;100.00
11676;BME280;5894;42.768;23.404;2023-08-17T05:25:50;95728.06;;;21.51;100.00
11676;BME280;5894;42.768;23.404;2023-08-17T05:28:17;95722.81;;;21.58;100.00
11676;BME280;5894;42.768;23.404;2023-08-17T05:30:44;95723.66;;;21.66;100.00
11676;BME280;5894;42.768;23.404;2023-08-17T05:33:11;95716.44;;;21.73;100.00
11676;BME280;5894;42.768;23.404;2023-08-17T05:35:38;95724.19;;;21.82;100.00
11676;BME280;5894;42.768;23.404;2023-08-17T05:38:05;95725.41;;;21.88;100.00
11676;BME280;5894;42.768;23.404;2023-08-17T05:40:34;95718.16;;;21.95;100.00
11676;BME280;5894;42.768;23.404;2023-08-17T05:43:03;95716.34;;;22.03;100.00
11676;BME280;5894;42.768;23.404;2023-08-17T05:45:30;95721.03;;;22.13;100.00
11676;BME280;5894;42.768;23.404;2023-08-17T05:47:57;95729.19;;;22.24;100.00
11676;BME280;5894;42.768;23.404;2023-08-17T05:50:24;95724.63;;;22.28;100.00
11676;BME280;5894;42.768;23.404;2023-08-17T05:52:50;95720.78;;;22.32;100.00
11676;BME280;5894;42.768;23.404;2023-08-17T05:55:17;95720.09;;;22.43;100.00
11676;BME280;5894;42.768;23.404;2023-08-17T05:57:46;95727.88;;;22.55;100.00
11676;BME280;5894;42.768;23.404;2023-08-17T06:00:13;95729.47;;;22.63;100.00
11676;BME280;5894;42.768;23.404;2023-08-17T06:02:42;95720.69;;;22.69;100.00
11676;BME280;5894;42.768;23.404;2023-08-17T06:05:09;95725.41;;;22.83;100.00
11676;BME280;5894;42.768;23.404;2023-08-17T06:07:36;95724.28;;;22.91;100.00
11676;BME280;5894;42.768;23.404;2023-08-17T06:10:04;95728.56;;;22.99;100.00
11676;BME280;5894;42.768;23.404;2023-08-17T06:12:31;95723.56;;;23.05;100.00
11676;BME280;5894;42.768;23.404;2023-08-17T06:15:02;95729.41;;;23.18;100.00
11676;BME280;5894;42.768;23.404;2023-08-17T06:17:29;95722.53;;;23.24;100.00
11676;BME280;5894;42.768;23.404;2023-08-17T06:19:56;95724.09;;;23.32;100.00
11676;BME280;5894;42.768;23.404;2023-08-17T06:22:23;95721.00;;;23.30;100.00
11676;BME280;5894;42.768;23.404;2023-08-17T06:24:50;95724.47;;;23.37;100.00
11676;BME280;5894;42.768;23.404;2023-08-17T06:27:17;95728.00;;;23.45;100.00
11676;BME280;5894;42.768;23.404;2023-08-17T06:29:44;95725.72;;;23.51;100.00
11676;BME280;5894;42.768;23.404;2023-08-17T06:32:12;95724.56;;;23.52;100.00
11676;BME280;5894;42.768;23.404;2023-08-17T06:34:39;95724.56;;;23.59;100.00
11676;BME280;5894;42.768;23.404;2023-08-17T06:37:06;95726.53;;;23.65;100.00
11676;BME280;5894;42.768;23.404;2023-08-17T06:39:33;95728.44;;;23.68;100.00
11676;BME280;5894;42.768;23.404;2023-08-17T06:42:00;95723.47;;;23.74;100.00
11676;BME280;5894;42.768;23.404;2023-08-17T06:44:27;95725.78;;;23.83;100.00
11676;BME280;5894;42.768;23.404;2023-08-17T06:46:56;95728.88;;;23.92;100.00
11676;BME280;5894;42.768;23.404;2023-08-17T06:49:26;95728.91;;;24.02;100.00
11676;BME280;5894;42.768;23.404;2023-08-17T06:51:54;95738.13;;;24.05;100.00
11676;BME280;5894;42.768;23.404;2023-08-17T06:54:21;95738.91;;;24.12;100.00
11676;BME280;5894;42.768;23.404;2023-08-17T06:56:48;95737.75;;;24.21;100.00
11676;BME280;5894;42.768;23.404;2023-08-17T06:59:15;95727.03;;;24.28;100.00
11676;BME280;5894;42.768;23.404;2023-08-17T07:01:42;95725.84;;;24.36;100.00
11676;BME280;5894;42.768;23.404;2023-08-17T07:04:09;95729.69;;;24.42;100.00
11676;BME280;5894;42.768;23.404;2023-08-17T07:06:37;95728.16;;;24.51;100.00
11676;BME280;5894;42.768;23.404;2023-08-17T07:09:06;95735.47;;;24.58;100.00
11676;BME280;5894;42.768;23.404;2023-08-17T07:11:33;95725.06;;;24.67;100.00
11676;BME280;5894;42.768;23.404;2023-08-17T07:14:00;95728.50;;;24.78;100.00
11676;BME280;5894;42.768;23.404;2023-08-17T07:16:27;95726.94;;;24.84;100.00
11676;BME280;5894;42.768;23.404;2023-08-17T07:18:54;95722.72;;;24.94;100.00
11676;BME280;5894;42.768;23.404;2023-08-17T07:21:21;95726.91;;;25.02;100.00
11676;BME280;5894;42.768;23.404;2023-08-17T07:23:51;95678.03;;;24.79;100.00
11676;BME280;5894;42.768;23.404;2023-08-17T07:26:17;95724.94;;;25.17;100.00
11676;BME280;5894;42.768;23.404;2023-08-17T07:28:46;95726.47;;;25.29;100.00
11676;BME280;5894;42.768;23.404;2023-08-17T07:31:13;95724.88;;;25.42;100.00
11676;BME280;5894;42.768;23.404;2023-08-17T07:33:40;95723.28;;;25.51;100.00
11676;BME280;5894;42.768;23.404;2023-08-17T07:36:07;95729.03;;;25.61;100.00
11676;BME280;5894;42.768;23.404;2023-08-17T07:38:35;95733.22;;;25.72;100.00
11676;BME280;5894;42.768;23.404;2023-08-17T07:41:03;95731.22;;;25.83;99.89
11676;BME280;5894;42.768;23.404;2023-08-17T07:43:30;95734.19;;;26.03;97.96
11676;BME280;5894;42.768;23.404;2023-08-17T07:45:57;95729.81;;;26.16;97.76
11676;BME280;5894;42.768;23.404;2023-08-17T07:48:24;95730.53;;;26.31;95.54
11676;BME280;5894;42.768;23.404;2023-08-17T07:50:52;95734.69;;;26.43;93.04
11676;BME280;5894;42.768;23.404;2023-08-17T07:53:19;95725.22;;;26.61;94.77
11676;BME280;5894;42.768;23.404;2023-08-17T07:55:46;95724.66;;;26.81;95.14
11676;BME280;5894;42.768;23.404;2023-08-17T07:58:15;95726.03;;;26.99;93.31
11676;BME280;5894;42.768;23.404;2023-08-17T08:00:42;95726.63;;;27.18;92.57
11676;BME280;5894;42.768;23.404;2023-08-17T08:03:09;95716.66;;;27.41;93.25
11676;BME280;5894;42.768;23.404;2023-08-17T08:05:36;95720.28;;;27.62;88.29
11676;BME280;5894;42.768;23.404;2023-08-17T08:08:04;95715.78;;;27.82;84.21
11676;BME280;5894;42.768;23.404;2023-08-17T08:10:31;95712.03;;;27.99;80.11
11676;BME280;5894;42.768;23.404;2023-08-17T08:12:58;95706.66;;;28.23;77.61
11676;BME280;5894;42.768;23.404;2023-08-17T08:15:26;95701.34;;;28.39;75.96
11676;BME280;5894;42.768;23.404;2023-08-17T08:17:53;95701.75;;;28.61;77.47
11676;BME280;5894;42.768;23.404;2023-08-17T08:20:20;95698.28;;;28.83;76.63
11676;BME280;5894;42.768;23.404;2023-08-17T08:22:47;95693.25;;;29.02;73.28
11676;BME280;5894;42.768;23.404;2023-08-17T08:25:14;95710.38;;;29.18;72.96
11676;BME280;5894;42.768;23.404;2023-08-17T08:27:41;95705.44;;;29.33;69.42
11676;BME280;5894;42.768;23.404;2023-08-17T08:30:09;95703.22;;;29.48;68.87
11676;BME280;5894;42.768;23.404;2023-08-17T08:32:37;95699.53;;;29.58;63.80
11676;BME280;5894;42.768;23.404;2023-08-17T08:35:05;95702.06;;;29.65;65.45
11676;BME280;5894;42.768;23.404;2023-08-17T08:37:32;95701.16;;;29.72;63.36
11676;BME280;5894;42.768;23.404;2023-08-17T08:39:59;95702.09;;;29.81;65.61
11676;BME280;5894;42.768;23.404;2023-08-17T08:42:27;95698.97;;;29.83;61.35
11676;BME280;5894;42.768;23.404;2023-08-17T08:44:54;95696.41;;;29.92;63.63
11676;BME280;5894;42.768;23.404;2023-08-17T08:47:22;95695.59;;;29.95;62.78
11676;BME280;5894;42.768;23.404;2023-08-17T08:49:58;95694.03;;;29.78;62.11
11676;BME280;5894;42.768;23.404;2023-08-17T08:52:35;95694.69;;;29.66;64.32
11676;BME280;5894;42.768;23.404;2023-08-17T08:55:11;95690.09;;;29.63;62.03
11676;BME280;5894;42.768;23.404;2023-08-17T08:57:39;95682.28;;;29.65;67.16
11676;BME280;5894;42.768;23.404;2023-08-17T09:00:08;95692.03;;;29.62;60.89
11676;BME280;5894;42.768;23.404;2023-08-17T09:02:36;95690.09;;;29.63;62.37
11676;BME280;5894;42.768;23.404;2023-08-17T09:05:06;95673.13;;;29.59;63.62
11676;BME280;5894;42.768;23.404;2023-08-17T09:07:35;95681.03;;;29.69;59.82
11676;BME280;5894;42.768;23.404;2023-08-17T09:10:05;95680.16;;;29.72;57.76
11676;BME280;5894;42.768;23.404;2023-08-17T09:12:32;95655.69;;;29.56;60.54
11676;BME280;5894;42.768;23.404;2023-08-17T09:14:59;95664.72;;;29.69;59.60
11676;BME280;5894;42.768;23.404;2023-08-17T09:17:26;95666.91;;;29.58;61.09
11676;BME280;5894;42.768;23.404;2023-08-17T09:19:54;95657.13;;;29.61;61.37
11676;BME280;5894;42.768;23.404;2023-08-17T09:22:37;95661.31;;;29.65;60.77
11676;BME280;5894;42.768;23.404;2023-08-17T09:25:05;95658.16;;;29.67;60.41
11676;BME280;5894;42.768;23.404;2023-08-17T09:27:33;95662.75;;;29.70;61.07
11676;BME280;5894;42.768;23.404;2023-08-17T09:30:04;95658.41;;;29.72;59.78
11676;BME280;5894;42.768;23.404;2023-08-17T09:32:32;95662.94;;;29.79;59.76
11676;BME280;5894;42.768;23.404;2023-08-17T09:35:01;95659.53;;;29.91;57.76
11676;BME280;5894;42.768;23.404;2023-08-17T09:37:30;95660.44;;;30.04;55.56
11676;BME280;5894;42.768;23.404;2023-08-17T09:39:57;95653.97;;;30.14;51.44
11676;BME280;5894;42.768;23.404;2023-08-17T09:42:24;95653.78;;;30.21;49.89
11676;BME280;5894;42.768;23.404;2023-08-17T09:44:53;95637.16;;;30.19;50.73
11676;BME280;5894;42.768;23.404;2023-08-17T09:47:22;95644.69;;;30.28;47.51
11676;BME280;5894;42.768;23.404;2023-08-17T09:49:49;95647.06;;;30.26;48.36
11676;BME280;5894;42.768;23.404;2023-08-17T09:52:16;95648.34;;;30.38;48.31
11676;BME280;5894;42.768;23.404;2023-08-17T09:54:45;95641.28;;;30.40;52.13
11676;BME280;5894;42.768;23.404;2023-08-17T09:57:13;95638.13;;;30.42;52.96
11676;BME280;5894;42.768;23.404;2023-08-17T09:59:40;95623.09;;;30.37;47.87
11676;BME280;5894;42.768;23.404;2023-08-17T10:02:16;95629.09;;;30.45;49.86
11676;BME280;5894;42.768;23.404;2023-08-17T10:04:44;95633.69;;;30.48;50.34
11676;BME280;5894;42.768;23.404;2023-08-17T10:07:14;95622.81;;;30.48;47.62
11676;BME280;5894;42.768;23.404;2023-08-17T10:09:45;95631.31;;;30.50;47.49
11676;BME280;5894;42.768;23.404;2023-08-17T10:12:15;95602.09;;;30.38;48.33
11676;BME280;5894;42.768;23.404;2023-08-17T10:14:49;95631.06;;;30.60;50.26
11676;BME280;5894;42.768;23.404;2023-08-17T10:17:24;95618.22;;;30.61;51.65
11676;BME280;5894;42.768;23.404;2023-08-17T10:19:54;95616.06;;;30.69;50.55
11676;BME280;5894;42.768;23.404;2023-08-17T10:22:28;95617.25;;;30.68;50.46
11676;BME280;5894;42.768;23.404;2023-08-17T10:25:00;95620.22;;;30.73;51.34
11676;BME280;5894;42.768;23.404;2023-08-17T10:27:27;95626.66;;;30.79;51.93
11676;BME280;5894;42.768;23.404;2023-08-17T10:29:55;95616.19;;;30.78;51.29
11676;BME280;5894;42.768;23.404;2023-08-17T10:32:23;95620.00;;;30.80;50.46
11676;BME280;5894;42.768;23.404;2023-08-17T10:34:51;95602.44;;;30.69;52.40
11676;BME280;5894;42.768;23.404;2023-08-17T10:37:19;95617.38;;;30.77;52.78
11676;BME280;5894;42.768;23.404;2023-08-17T10:39:48;95628.22;;;30.64;52.58
11676;BME280;5894;42.768;23.404;2023-08-17T10:42:30;95604.25;;;30.59;53.68
11676;BME280;5894;42.768;23.404;2023-08-17T10:44:57;95615.72;;;30.67;53.74
11676;BME280;5894;42.768;23.404;2023-08-17T10:47:28;95612.44;;;30.59;52.35
11676;BME280;5894;42.768;23.404;2023-08-17T10:49:57;95608.09;;;30.45;53.21
11676;BME280;5894;42.768;23.404;2023-08-17T10:52:29;95597.81;;;30.37;53.60
11676;BME280;5894;42.768;23.404;2023-08-17T10:54:59;95607.88;;;30.40;53.82
11676;BME280;5894;42.768;23.404;2023-08-17T10:57:35;95590.44;;;30.37;53.27
11676;BME280;5894;42.768;23.404;2023-08-17T11:00:17;95594.59;;;30.42;53.91
11676;BME280;5894;42.768;23.404;2023-08-17T11:02:54;95601.47;;;30.46;54.71
11676;BME280;5894;42.768;23.404;2023-08-17T11:05:37;95564.34;;;30.23;55.12
11676;BME280;5894;42.768;23.404;2023-08-17T11:08:05;95587.94;;;30.43;53.76
11676;BME280;5894;42.768;23.404;2023-08-17T11:10:35;95576.88;;;30.50;53.86
11676;BME280;5894;42.768;23.404;2023-08-17T11:13:05;95567.63;;;30.47;52.69
11676;BME280;5894;42.768;23.404;2023-08-17T11:15:36;95575.44;;;30.45;52.95
11676;BME280;5894;42.768;23.404;2023-08-17T11:18:06;95582.25;;;30.53;52.82
11676;BME280;5894;42.768;23.404;2023-08-17T11:20:34;95582.91;;;30.57;53.61
11676;BME280;5894;42.768;23.404;2023-08-17T11:23:03;95570.94;;;30.55;52.67
11676;BME280;5894;42.768;23.404;2023-08-17T11:25:31;95585.88;;;30.63;52.40
11676;BME280;5894;42.768;23.404;2023-08-17T11:27:59;95577.94;;;30.69;52.65
11676;BME280;5894;42.768;23.404;2023-08-17T11:30:29;95577.50;;;30.70;51.19
11676;BME280;5894;42.768;23.404;2023-08-17T11:32:56;95572.25;;;30.63;50.69
11676;BME280;5894;42.768;23.404;2023-08-17T11:35:23;95567.25;;;30.61;52.64
11676;BME280;5894;42.768;23.404;2023-08-17T11:37:50;95568.59;;;30.70;53.22
11676;BME280;5894;42.768;23.404;2023-08-17T11:40:17;95569.69;;;30.72;51.87
11676;BME280;5894;42.768;23.404;2023-08-17T11:42:45;95523.09;;;30.41;51.34
11676;BME280;5894;42.768;23.404;2023-08-17T11:45:13;95566.66;;;30.83;51.15
11676;BME280;5894;42.768;23.404;2023-08-17T11:47:42;95570.47;;;30.85;52.62
11676;BME280;5894;42.768;23.404;2023-08-17T11:50:10;95568.50;;;30.86;51.68
11676;BME280;5894;42.768;23.404;2023-08-17T11:52:37;95560.25;;;30.89;51.89
11676;BME280;5894;42.768;23.404;2023-08-17T11:55:06;95559.69;;;30.94;51.25
11676;BME280;5894;42.768;23.404;2023-08-17T11:57:35;95560.78;;;30.97;50.66
11676;BME280;5894;42.768;23.404;2023-08-17T12:00:04;95554.16;;;30.98;49.30
11676;BME280;5894;42.768;23.404;2023-08-17T12:02:32;95559.72;;;31.07;49.64
11676;BME280;5894;42.768;23.404;2023-08-17T12:05:05;95553.63;;;31.03;50.08
11676;BME280;5894;42.768;23.404;2023-08-17T12:07:32;95552.88;;;31.15;49.09
11676;BME280;5894;42.768;23.404;2023-08-17T12:09:59;95549.72;;;31.17;52.34
11676;BME280;5894;42.768;23.404;2023-08-17T12:12:28;95505.44;;;30.87;52.06
11676;BME280;5894;42.768;23.404;2023-08-17T12:14:57;95549.63;;;31.20;52.10
11676;BME280;5894;42.768;23.404;2023-08-17T12:17:24;95545.47;;;31.16;52.12
11676;BME280;5894;42.768;23.404;2023-08-17T12:19:54;95547.66;;;31.21;51.17
11676;BME280;5894;42.768;23.404;2023-08-17T12:22:25;95529.88;;;31.16;51.84
11676;BME280;5894;42.768;23.404;2023-08-17T12:24:52;95534.91;;;31.30;50.77
11676;BME280;5894;42.768;23.404;2023-08-17T12:27:22;95542.53;;;31.35;51.08
11676;BME280;5894;42.768;23.404;2023-08-17T12:29:50;95547.25;;;31.35;51.09
11676;BME280;5894;42.768;23.404;2023-08-17T12:32:18;95541.78;;;31.35;50.02
11676;BME280;5894;42.768;23.404;2023-08-17T12:34:46;95548.97;;;31.42;50.09
11676;BME280;5894;42.768;23.404;2023-08-17T12:37:19;95550.69;;;31.48;49.51
11676;BME280;5894;42.768;23.404;2023-08-17T12:39:48;95541.31;;;31.62;48.41
11676;BME280;5894;42.768;23.404;2023-08-17T12:42:15;95538.72;;;31.71;49.09
11676;BME280;5894;42.768;23.404;2023-08-17T12:44:44;95497.84;;;31.46;49.97
11676;BME280;5894;42.768;23.404;2023-08-17T12:47:11;95539.66;;;31.77;49.44
11676;BME280;5894;42.768;23.404;2023-08-17T12:49:38;95530.19;;;31.82;50.13
11676;BME280;5894;42.768;23.404;2023-08-17T12:52:05;95537.81;;;31.87;49.17
11676;BME280;5894;42.768;23.404;2023-08-17T12:54:32;95536.03;;;31.93;48.86
11676;BME280;5894;42.768;23.404;2023-08-17T12:57:01;95537.00;;;31.99;48.02
11676;BME280;5894;42.768;23.404;2023-08-17T12:59:28;95540.50;;;31.99;48.76